Schedule Details

Flight Number: ASX321X
Departure: Athens (LGAV) at 17:00Z
Arrival: Gdansk im. Lecha Walesy (EPGD) at 20:00Z

Weather Information
LGAV 180620Z 00000KT 9999 FEW025 07/04 Q1021 NOSIG
EPGD 180630Z 29002KT 8000 SCT041 M03/M04 Q1026

Schedule Frequency

Route Map